sensor_id;sensor_type;location;lat;lon;timestamp;P1;durP1;ratioP1;P2;durP2;ratioP2
59418;SDS011;45224;50.904;6.038;2023-02-07T00:00:41;22.27;;;5.93;;
59418;SDS011;45224;50.904;6.038;2023-02-07T00:02:11;14.30;;;6.17;;
59418;SDS011;45224;50.904;6.038;2023-02-07T00:03:42;15.20;;;6.03;;
59418;SDS011;45224;50.904;6.038;2023-02-07T00:05:13;16.27;;;6.35;;
59418;SDS011;45224;50.904;6.038;2023-02-07T00:06:44;20.00;;;6.07;;
59418;SDS011;45224;50.904;6.038;2023-02-07T00:08:15;19.27;;;6.13;;
59418;SDS011;45224;50.904;6.038;2023-02-07T00:09:46;16.42;;;5.60;;
59418;SDS011;45224;50.904;6.038;2023-02-07T00:11:17;14.70;;;6.23;;
59418;SDS011;45224;50.904;6.038;2023-02-07T00:12:49;22.27;;;7.07;;
59418;SDS011;45224;50.904;6.038;2023-02-07T00:14:19;19.17;;;7.13;;
59418;SDS011;45224;50.904;6.038;2023-02-07T00:15:50;16.43;;;6.53;;
59418;SDS011;45224;50.904;6.038;2023-02-07T00:17:20;17.07;;;6.20;;
59418;SDS011;45224;50.904;6.038;2023-02-07T00:18:51;15.97;;;5.77;;
59418;SDS011;45224;50.904;6.038;2023-02-07T00:20:21;18.45;;;5.78;;
59418;SDS011;45224;50.904;6.038;2023-02-07T00:21:54;15.80;;;6.55;;
59418;SDS011;45224;50.904;6.038;2023-02-07T00:23:24;28.90;;;7.60;;
59418;SDS011;45224;50.904;6.038;2023-02-07T00:24:55;16.17;;;6.63;;
59418;SDS011;45224;50.904;6.038;2023-02-07T00:26:25;13.87;;;6.73;;
59418;SDS011;45224;50.904;6.038;2023-02-07T00:27:56;22.17;;;5.80;;
59418;SDS011;45224;50.904;6.038;2023-02-07T00:29:27;20.87;;;7.27;;
59418;SDS011;45224;50.904;6.038;2023-02-07T00:32:39;20.60;;;7.28;;
59418;SDS011;45224;50.904;6.038;2023-02-07T00:34:09;19.93;;;6.67;;
59418;SDS011;45224;50.904;6.038;2023-02-07T00:35:40;25.63;;;8.02;;
59418;SDS011;45224;50.904;6.038;2023-02-07T00:37:11;16.60;;;6.57;;
59418;SDS011;45224;50.904;6.038;2023-02-07T00:38:42;21.13;;;7.23;;
59418;SDS011;45224;50.904;6.038;2023-02-07T00:40:15;24.08;;;7.10;;
59418;SDS011;45224;50.904;6.038;2023-02-07T00:41:47;22.70;;;6.47;;
59418;SDS011;45224;50.904;6.038;2023-02-07T00:43:17;23.30;;;7.80;;
59418;SDS011;45224;50.904;6.038;2023-02-07T00:44:48;19.10;;;7.27;;
59418;SDS011;45224;50.904;6.038;2023-02-07T00:46:18;17.17;;;6.60;;
59418;SDS011;45224;50.904;6.038;2023-02-07T00:47:49;24.10;;;7.00;;
59418;SDS011;45224;50.904;6.038;2023-02-07T00:49:19;21.33;;;6.53;;
59418;SDS011;45224;50.904;6.038;2023-02-07T00:50:50;18.35;;;6.22;;
59418;SDS011;45224;50.904;6.038;2023-02-07T00:52:20;18.60;;;6.77;;
59418;SDS011;45224;50.904;6.038;2023-02-07T00:53:51;19.50;;;6.47;;
59418;SDS011;45224;50.904;6.038;2023-02-07T00:55:23;22.63;;;6.60;;
59418;SDS011;45224;50.904;6.038;2023-02-07T00:56:53;18.97;;;6.90;;
59418;SDS011;45224;50.904;6.038;2023-02-07T00:58:24;20.43;;;7.10;;
59418;SDS011;45224;50.904;6.038;2023-02-07T00:59:55;17.83;;;6.63;;
59418;SDS011;45224;50.904;6.038;2023-02-07T01:01:25;24.53;;;7.33;;
59418;SDS011;45224;50.904;6.038;2023-02-07T01:02:59;18.02;;;7.05;;
59418;SDS011;45224;50.904;6.038;2023-02-07T01:04:30;24.83;;;7.70;;
59418;SDS011;45224;50.904;6.038;2023-02-07T01:06:00;19.00;;;6.83;;
59418;SDS011;45224;50.904;6.038;2023-02-07T01:07:31;22.00;;;7.40;;
59418;SDS011;45224;50.904;6.038;2023-02-07T01:09:04;19.58;;;7.25;;
59418;SDS011;45224;50.904;6.038;2023-02-07T01:10:37;18.83;;;7.18;;
59418;SDS011;45224;50.904;6.038;2023-02-07T01:12:09;18.80;;;6.60;;
59418;SDS011;45224;50.904;6.038;2023-02-07T01:13:40;24.25;;;7.78;;
59418;SDS011;45224;50.904;6.038;2023-02-07T01:15:13;22.98;;;7.28;;
59418;SDS011;45224;50.904;6.038;2023-02-07T01:16:44;21.50;;;7.53;;
59418;SDS011;45224;50.904;6.038;2023-02-07T01:18:15;22.73;;;6.80;;
59418;SDS011;45224;50.904;6.038;2023-02-07T01:19:45;23.95;;;7.22;;
59418;SDS011;45224;50.904;6.038;2023-02-07T01:21:17;22.63;;;7.20;;
59418;SDS011;45224;50.904;6.038;2023-02-07T01:22:49;21.73;;;7.80;;
59418;SDS011;45224;50.904;6.038;2023-02-07T01:24:19;22.63;;;7.27;;
59418;SDS011;45224;50.904;6.038;2023-02-07T01:25:50;21.35;;;7.88;;
59418;SDS011;45224;50.904;6.038;2023-02-07T01:27:21;19.00;;;7.97;;
59418;SDS011;45224;50.904;6.038;2023-02-07T01:28:53;24.35;;;7.65;;
59418;SDS011;45224;50.904;6.038;2023-02-07T01:30:24;22.73;;;7.55;;
59418;SDS011;45224;50.904;6.038;2023-02-07T01:31:55;24.60;;;7.70;;
59418;SDS011;45224;50.904;6.038;2023-02-07T01:33:25;20.63;;;7.80;;
59418;SDS011;45224;50.904;6.038;2023-02-07T01:34:56;26.23;;;7.30;;
59418;SDS011;45224;50.904;6.038;2023-02-07T01:36:27;25.02;;;8.18;;
59418;SDS011;45224;50.904;6.038;2023-02-07T01:37:58;26.67;;;8.05;;
59418;SDS011;45224;50.904;6.038;2023-02-07T01:39:31;29.05;;;7.70;;
59418;SDS011;45224;50.904;6.038;2023-02-07T01:41:02;15.70;;;7.40;;
59418;SDS011;45224;50.904;6.038;2023-02-07T01:42:33;16.13;;;6.88;;
59418;SDS011;45224;50.904;6.038;2023-02-07T01:44:07;22.10;;;8.53;;
59418;SDS011;45224;50.904;6.038;2023-02-07T01:45:58;16.48;;;6.88;;
59418;SDS011;45224;50.904;6.038;2023-02-07T01:47:28;22.60;;;7.83;;
59418;SDS011;45224;50.904;6.038;2023-02-07T01:49:01;17.52;;;7.25;;
59418;SDS011;45224;50.904;6.038;2023-02-07T01:50:35;15.20;;;7.15;;
59418;SDS011;45224;50.904;6.038;2023-02-07T01:53:40;16.83;;;7.18;;
59418;SDS011;45224;50.904;6.038;2023-02-07T01:55:12;17.83;;;7.25;;
59418;SDS011;45224;50.904;6.038;2023-02-07T01:56:54;18.88;;;7.40;;
59418;SDS011;45224;50.904;6.038;2023-02-07T01:58:27;24.05;;;7.80;;
59418;SDS011;45224;50.904;6.038;2023-02-07T01:59:58;19.38;;;8.02;;
59418;SDS011;45224;50.904;6.038;2023-02-07T02:01:29;20.20;;;7.95;;
59418;SDS011;45224;50.904;6.038;2023-02-07T02:03:00;23.10;;;8.50;;
59418;SDS011;45224;50.904;6.038;2023-02-07T02:04:31;20.45;;;8.05;;
59418;SDS011;45224;50.904;6.038;2023-02-07T02:06:01;22.03;;;7.93;;
59418;SDS011;45224;50.904;6.038;2023-02-07T02:07:32;18.17;;;8.00;;
59418;SDS011;45224;50.904;6.038;2023-02-07T02:09:08;18.42;;;7.63;;
59418;SDS011;45224;50.904;6.038;2023-02-07T02:10:55;23.38;;;9.13;;
59418;SDS011;45224;50.904;6.038;2023-02-07T02:12:56;22.42;;;7.55;;
59418;SDS011;45224;50.904;6.038;2023-02-07T02:16:41;16.50;;;6.80;;
59418;SDS011;45224;50.904;6.038;2023-02-07T02:21:52;20.02;;;8.32;;
59418;SDS011;45224;50.904;6.038;2023-02-07T02:23:53;15.60;;;7.72;;
59418;SDS011;45224;50.904;6.038;2023-02-07T02:26:18;20.77;;;8.13;;
59418;SDS011;45224;50.904;6.038;2023-02-07T02:35:20;20.55;;;7.82;;
59418;SDS011;45224;50.904;6.038;2023-02-07T02:37:07;24.75;;;9.15;;
59418;SDS011;45224;50.904;6.038;2023-02-07T02:40:49;21.92;;;8.00;;
59418;SDS011;45224;50.904;6.038;2023-02-07T02:42:32;16.40;;;7.03;;
59418;SDS011;45224;50.904;6.038;2023-02-07T02:44:12;23.52;;;9.15;;
59418;SDS011;45224;50.904;6.038;2023-02-07T02:45:58;18.17;;;8.07;;
59418;SDS011;45224;50.904;6.038;2023-02-07T02:47:36;25.20;;;7.78;;
59418;SDS011;45224;50.904;6.038;2023-02-07T02:49:12;20.98;;;8.07;;
59418;SDS011;45224;50.904;6.038;2023-02-07T02:50:45;22.50;;;8.10;;
59418;SDS011;45224;50.904;6.038;2023-02-07T02:52:18;19.90;;;8.55;;
59418;SDS011;45224;50.904;6.038;2023-02-07T02:53:53;27.10;;;8.35;;
59418;SDS011;45224;50.904;6.038;2023-02-07T02:59:08;22.98;;;8.38;;
59418;SDS011;45224;50.904;6.038;2023-02-07T03:00:56;15.15;;;7.25;;
59418;SDS011;45224;50.904;6.038;2023-02-07T03:04:20;18.98;;;7.07;;
59418;SDS011;45224;50.904;6.038;2023-02-07T03:09:29;14.98;;;7.13;;
59418;SDS011;45224;50.904;6.038;2023-02-07T03:16:53;20.38;;;7.07;;
59418;SDS011;45224;50.904;6.038;2023-02-07T03:18:45;22.75;;;7.75;;
59418;SDS011;45224;50.904;6.038;2023-02-07T03:22:05;17.95;;;7.72;;
59418;SDS011;45224;50.904;6.038;2023-02-07T03:23:40;24.20;;;7.43;;
59418;SDS011;45224;50.904;6.038;2023-02-07T03:25:11;16.35;;;7.38;;
59418;SDS011;45224;50.904;6.038;2023-02-07T03:26:45;17.95;;;7.05;;
59418;SDS011;45224;50.904;6.038;2023-02-07T03:28:17;18.63;;;8.13;;
59418;SDS011;45224;50.904;6.038;2023-02-07T03:29:51;20.45;;;7.80;;
59418;SDS011;45224;50.904;6.038;2023-02-07T03:31:26;19.00;;;7.03;;
59418;SDS011;45224;50.904;6.038;2023-02-07T03:33:00;20.60;;;7.65;;
59418;SDS011;45224;50.904;6.038;2023-02-07T03:36:15;17.80;;;7.75;;
59418;SDS011;45224;50.904;6.038;2023-02-07T03:37:58;11.25;;;6.22;;
59418;SDS011;45224;50.904;6.038;2023-02-07T03:39:31;17.60;;;7.38;;
59418;SDS011;45224;50.904;6.038;2023-02-07T03:41:05;17.17;;;7.20;;
59418;SDS011;45224;50.904;6.038;2023-02-07T03:42:50;15.40;;;6.97;;
59418;SDS011;45224;50.904;6.038;2023-02-07T03:44:25;16.50;;;6.80;;
59418;SDS011;45224;50.904;6.038;2023-02-07T03:45:58;20.95;;;7.70;;
59418;SDS011;45224;50.904;6.038;2023-02-07T03:47:28;16.83;;;7.43;;
59418;SDS011;45224;50.904;6.038;2023-02-07T03:48:59;20.50;;;7.20;;
59418;SDS011;45224;50.904;6.038;2023-02-07T03:50:29;15.70;;;6.80;;
59418;SDS011;45224;50.904;6.038;2023-02-07T03:52:00;13.10;;;7.13;;
59418;SDS011;45224;50.904;6.038;2023-02-07T03:53:30;16.77;;;6.83;;
59418;SDS011;45224;50.904;6.038;2023-02-07T03:55:01;12.63;;;6.30;;
59418;SDS011;45224;50.904;6.038;2023-02-07T03:56:31;20.33;;;6.40;;
59418;SDS011;45224;50.904;6.038;2023-02-07T03:58:02;15.83;;;6.80;;
59418;SDS011;45224;50.904;6.038;2023-02-07T03:59:32;19.47;;;6.87;;
59418;SDS011;45224;50.904;6.038;2023-02-07T04:01:04;18.38;;;7.28;;
59418;SDS011;45224;50.904;6.038;2023-02-07T04:02:34;20.10;;;6.77;;
59418;SDS011;45224;50.904;6.038;2023-02-07T04:04:05;15.18;;;7.10;;
59418;SDS011;45224;50.904;6.038;2023-02-07T04:05:36;14.07;;;6.50;;
59418;SDS011;45224;50.904;6.038;2023-02-07T04:07:06;12.90;;;5.87;;
59418;SDS011;45224;50.904;6.038;2023-02-07T04:08:37;16.27;;;6.60;;
59418;SDS011;45224;50.904;6.038;2023-02-07T04:10:09;17.53;;;6.97;;
59418;SDS011;45224;50.904;6.038;2023-02-07T04:11:40;15.70;;;6.82;;
59418;SDS011;45224;50.904;6.038;2023-02-07T04:13:10;18.53;;;6.57;;
59418;SDS011;45224;50.904;6.038;2023-02-07T04:14:41;14.53;;;6.43;;
59418;SDS011;45224;50.904;6.038;2023-02-07T04:16:11;19.37;;;6.17;;
59418;SDS011;45224;50.904;6.038;2023-02-07T04:17:41;17.23;;;7.03;;
59418;SDS011;45224;50.904;6.038;2023-02-07T04:19:12;17.37;;;6.73;;
59418;SDS011;45224;50.904;6.038;2023-02-07T04:20:43;14.40;;;6.13;;
59418;SDS011;45224;50.904;6.038;2023-02-07T04:22:13;13.53;;;6.03;;
59418;SDS011;45224;50.904;6.038;2023-02-07T04:23:43;13.23;;;5.87;;
59418;SDS011;45224;50.904;6.038;2023-02-07T04:25:15;18.83;;;6.90;;
59418;SDS011;45224;50.904;6.038;2023-02-07T04:26:45;21.80;;;6.90;;
59418;SDS011;45224;50.904;6.038;2023-02-07T04:28:16;12.43;;;5.73;;
59418;SDS011;45224;50.904;6.038;2023-02-07T04:29:46;17.83;;;7.00;;
59418;SDS011;45224;50.904;6.038;2023-02-07T04:31:17;17.60;;;6.75;;
59418;SDS011;45224;50.904;6.038;2023-02-07T04:32:48;15.90;;;6.77;;
59418;SDS011;45224;50.904;6.038;2023-02-07T04:34:18;12.87;;;6.13;;
59418;SDS011;45224;50.904;6.038;2023-02-07T04:35:52;13.70;;;6.70;;
59418;SDS011;45224;50.904;6.038;2023-02-07T04:37:27;15.40;;;6.95;;
59418;SDS011;45224;50.904;6.038;2023-02-07T04:38:57;13.10;;;5.90;;
59418;SDS011;45224;50.904;6.038;2023-02-07T04:40:28;13.50;;;5.63;;
59418;SDS011;45224;50.904;6.038;2023-02-07T04:41:58;12.90;;;5.97;;
59418;SDS011;45224;50.904;6.038;2023-02-07T04:43:29;14.53;;;6.90;;
59418;SDS011;45224;50.904;6.038;2023-02-07T04:45:00;16.95;;;6.40;;
59418;SDS011;45224;50.904;6.038;2023-02-07T04:46:31;16.50;;;6.80;;
59418;SDS011;45224;50.904;6.038;2023-02-07T04:48:01;14.07;;;5.77;;
59418;SDS011;45224;50.904;6.038;2023-02-07T04:49:32;11.20;;;5.57;;
59418;SDS011;45224;50.904;6.038;2023-02-07T04:51:03;12.87;;;6.17;;
59418;SDS011;45224;50.904;6.038;2023-02-07T04:54:04;17.17;;;5.70;;
59418;SDS011;45224;50.904;6.038;2023-02-07T04:55:35;10.90;;;5.60;;
59418;SDS011;45224;50.904;6.038;2023-02-07T04:57:06;13.48;;;5.75;;
59418;SDS011;45224;50.904;6.038;2023-02-07T04:58:36;11.33;;;5.20;;
59418;SDS011;45224;50.904;6.038;2023-02-07T05:00:07;10.27;;;5.50;;
59418;SDS011;45224;50.904;6.038;2023-02-07T05:01:38;13.38;;;6.18;;
59418;SDS011;45224;50.904;6.038;2023-02-07T05:03:09;12.45;;;6.28;;
59418;SDS011;45224;50.904;6.038;2023-02-07T05:04:39;10.50;;;5.23;;
59418;SDS011;45224;50.904;6.038;2023-02-07T05:06:10;11.23;;;5.67;;
59418;SDS011;45224;50.904;6.038;2023-02-07T05:07:40;14.23;;;5.93;;
59418;SDS011;45224;50.904;6.038;2023-02-07T05:09:11;17.67;;;6.50;;
59418;SDS011;45224;50.904;6.038;2023-02-07T05:10:42;13.37;;;5.87;;
59418;SDS011;45224;50.904;6.038;2023-02-07T05:12:12;19.93;;;7.10;;
59418;SDS011;45224;50.904;6.038;2023-02-07T05:13:43;17.67;;;7.67;;
59418;SDS011;45224;50.904;6.038;2023-02-07T05:15:13;18.10;;;7.53;;
59418;SDS011;45224;50.904;6.038;2023-02-07T05:16:43;17.73;;;7.40;;
59418;SDS011;45224;50.904;6.038;2023-02-07T05:18:14;22.07;;;7.63;;
59418;SDS011;45224;50.904;6.038;2023-02-07T05:19:44;18.80;;;7.93;;
59418;SDS011;45224;50.904;6.038;2023-02-07T05:21:15;16.87;;;7.77;;
59418;SDS011;45224;50.904;6.038;2023-02-07T05:22:45;18.13;;;7.60;;
59418;SDS011;45224;50.904;6.038;2023-02-07T05:24:16;17.33;;;7.10;;
59418;SDS011;45224;50.904;6.038;2023-02-07T05:25:47;21.10;;;8.23;;
59418;SDS011;45224;50.904;6.038;2023-02-07T05:28:48;22.03;;;7.67;;
59418;SDS011;45224;50.904;6.038;2023-02-07T05:30:19;22.87;;;8.10;;
59418;SDS011;45224;50.904;6.038;2023-02-07T05:31:49;18.13;;;8.73;;
59418;SDS011;45224;50.904;6.038;2023-02-07T05:33:38;16.30;;;7.00;;
59418;SDS011;45224;50.904;6.038;2023-02-07T05:35:09;19.03;;;7.10;;
59418;SDS011;45224;50.904;6.038;2023-02-07T05:36:40;19.90;;;7.80;;
59418;SDS011;45224;50.904;6.038;2023-02-07T05:38:11;16.67;;;7.93;;
59418;SDS011;45224;50.904;6.038;2023-02-07T05:39:44;15.95;;;7.53;;
59418;SDS011;45224;50.904;6.038;2023-02-07T05:41:14;21.70;;;8.63;;
59418;SDS011;45224;50.904;6.038;2023-02-07T05:42:45;15.23;;;7.20;;
59418;SDS011;45224;50.904;6.038;2023-02-07T05:44:15;17.33;;;7.33;;
59418;SDS011;45224;50.904;6.038;2023-02-07T05:45:46;19.77;;;7.80;;
59418;SDS011;45224;50.904;6.038;2023-02-07T05:47:16;20.47;;;6.83;;
59418;SDS011;45224;50.904;6.038;2023-02-07T05:48:47;14.07;;;6.43;;
59418;SDS011;45224;50.904;6.038;2023-02-07T05:50:18;16.88;;;7.68;;
59418;SDS011;45224;50.904;6.038;2023-02-07T05:51:48;18.45;;;7.68;;
59418;SDS011;45224;50.904;6.038;2023-02-07T05:53:19;18.77;;;7.30;;
59418;SDS011;45224;50.904;6.038;2023-02-07T05:54:49;14.30;;;6.97;;
59418;SDS011;45224;50.904;6.038;2023-02-07T05:56:20;13.30;;;6.68;;
59418;SDS011;45224;50.904;6.038;2023-02-07T05:57:51;14.83;;;6.70;;
59418;SDS011;45224;50.904;6.038;2023-02-07T05:59:21;17.00;;;6.93;;
59418;SDS011;45224;50.904;6.038;2023-02-07T06:00:53;13.97;;;6.33;;
59418;SDS011;45224;50.904;6.038;2023-02-07T06:02:24;15.80;;;6.80;;
59418;SDS011;45224;50.904;6.038;2023-02-07T06:03:54;14.77;;;6.97;;
59418;SDS011;45224;50.904;6.038;2023-02-07T06:05:25;17.90;;;8.13;;
59418;SDS011;45224;50.904;6.038;2023-02-07T06:07:00;16.48;;;6.78;;
59418;SDS011;45224;50.904;6.038;2023-02-07T06:08:30;19.57;;;7.67;;
59418;SDS011;45224;50.904;6.038;2023-02-07T06:10:02;14.23;;;6.57;;
59418;SDS011;45224;50.904;6.038;2023-02-07T06:11:35;16.73;;;6.90;;
59418;SDS011;45224;50.904;6.038;2023-02-07T06:13:05;17.30;;;7.70;;
59418;SDS011;45224;50.904;6.038;2023-02-07T06:14:36;23.00;;;8.70;;
59418;SDS011;45224;50.904;6.038;2023-02-07T06:16:06;18.50;;;8.30;;
59418;SDS011;45224;50.904;6.038;2023-02-07T06:17:39;16.45;;;7.18;;
59418;SDS011;45224;50.904;6.038;2023-02-07T06:19:10;21.90;;;8.20;;
59418;SDS011;45224;50.904;6.038;2023-02-07T06:20:42;17.58;;;7.30;;
59418;SDS011;45224;50.904;6.038;2023-02-07T06:22:12;21.80;;;8.00;;
59418;SDS011;45224;50.904;6.038;2023-02-07T06:23:43;18.00;;;7.88;;
59418;SDS011;45224;50.904;6.038;2023-02-07T06:25:16;16.23;;;8.07;;
59418;SDS011;45224;50.904;6.038;2023-02-07T06:26:46;17.90;;;7.40;;
59418;SDS011;45224;50.904;6.038;2023-02-07T06:28:16;21.53;;;7.53;;
59418;SDS011;45224;50.904;6.038;2023-02-07T06:29:47;20.67;;;7.60;;
59418;SDS011;45224;50.904;6.038;2023-02-07T06:31:17;18.57;;;8.37;;
59418;SDS011;45224;50.904;6.038;2023-02-07T06:32:48;19.43;;;8.03;;
59418;SDS011;45224;50.904;6.038;2023-02-07T06:34:19;16.60;;;7.45;;
59418;SDS011;45224;50.904;6.038;2023-02-07T06:35:50;26.23;;;7.90;;
59418;SDS011;45224;50.904;6.038;2023-02-07T06:37:20;15.77;;;7.53;;
59418;SDS011;45224;50.904;6.038;2023-02-07T06:38:51;17.60;;;8.23;;
59418;SDS011;45224;50.904;6.038;2023-02-07T06:40:24;20.75;;;7.57;;
59418;SDS011;45224;50.904;6.038;2023-02-07T06:41:54;19.40;;;8.10;;
59418;SDS011;45224;50.904;6.038;2023-02-07T06:43:25;20.80;;;8.00;;
59418;SDS011;45224;50.904;6.038;2023-02-07T06:44:55;17.53;;;7.87;;
59418;SDS011;45224;50.904;6.038;2023-02-07T06:46:26;16.90;;;7.23;;
59418;SDS011;45224;50.904;6.038;2023-02-07T06:47:56;15.93;;;6.97;;
59418;SDS011;45224;50.904;6.038;2023-02-07T06:49:27;14.97;;;6.63;;
59418;SDS011;45224;50.904;6.038;2023-02-07T06:50:57;18.37;;;6.83;;
59418;SDS011;45224;50.904;6.038;2023-02-07T06:52:28;15.17;;;7.30;;
59418;SDS011;45224;50.904;6.038;2023-02-07T06:53:58;16.53;;;7.00;;
59418;SDS011;45224;50.904;6.038;2023-02-07T06:55:31;17.80;;;7.85;;
59418;SDS011;45224;50.904;6.038;2023-02-07T06:57:04;20.55;;;7.32;;
59418;SDS011;45224;50.904;6.038;2023-02-07T06:58:35;17.40;;;8.00;;
59418;SDS011;45224;50.904;6.038;2023-02-07T07:00:05;14.17;;;7.30;;
59418;SDS011;45224;50.904;6.038;2023-02-07T07:01:36;15.25;;;6.78;;
59418;SDS011;45224;50.904;6.038;2023-02-07T07:03:09;17.70;;;7.50;;
59418;SDS011;45224;50.904;6.038;2023-02-07T07:04:43;16.15;;;7.28;;
59418;SDS011;45224;50.904;6.038;2023-02-07T07:06:14;16.17;;;7.97;;
59418;SDS011;45224;50.904;6.038;2023-02-07T07:07:44;19.83;;;8.43;;
59418;SDS011;45224;50.904;6.038;2023-02-07T07:09:15;18.40;;;7.95;;
59418;SDS011;45224;50.904;6.038;2023-02-07T07:10:46;17.03;;;7.07;;
59418;SDS011;45224;50.904;6.038;2023-02-07T07:12:16;17.10;;;7.57;;
59418;SDS011;45224;50.904;6.038;2023-02-07T07:13:47;27.63;;;8.17;;
59418;SDS011;45224;50.904;6.038;2023-02-07T07:15:17;19.80;;;8.40;;
59418;SDS011;45224;50.904;6.038;2023-02-07T07:16:47;19.63;;;8.70;;
59418;SDS011;45224;50.904;6.038;2023-02-07T07:18:18;18.07;;;7.20;;
59418;SDS011;45224;50.904;6.038;2023-02-07T07:19:48;19.87;;;8.37;;
59418;SDS011;45224;50.904;6.038;2023-02-07T07:21:19;21.53;;;8.00;;
59418;SDS011;45224;50.904;6.038;2023-02-07T07:22:49;21.73;;;8.20;;
59418;SDS011;45224;50.904;6.038;2023-02-07T07:24:20;18.00;;;8.10;;
59418;SDS011;45224;50.904;6.038;2023-02-07T07:25:50;23.17;;;7.80;;
59418;SDS011;45224;50.904;6.038;2023-02-07T07:27:21;21.05;;;8.07;;
59418;SDS011;45224;50.904;6.038;2023-02-07T07:28:52;17.63;;;8.20;;
59418;SDS011;45224;50.904;6.038;2023-02-07T07:30:27;24.95;;;9.30;;
59418;SDS011;45224;50.904;6.038;2023-02-07T07:31:57;21.07;;;10.10;;
59418;SDS011;45224;50.904;6.038;2023-02-07T07:33:28;21.17;;;9.63;;
59418;SDS011;45224;50.904;6.038;2023-02-07T07:34:58;20.33;;;8.93;;
59418;SDS011;45224;50.904;6.038;2023-02-07T07:36:29;16.60;;;8.60;;
59418;SDS011;45224;50.904;6.038;2023-02-07T07:37:59;19.47;;;9.03;;
59418;SDS011;45224;50.904;6.038;2023-02-07T07:39:30;19.40;;;8.87;;
59418;SDS011;45224;50.904;6.038;2023-02-07T07:41:00;20.10;;;9.03;;
59418;SDS011;45224;50.904;6.038;2023-02-07T07:42:31;23.50;;;10.13;;
59418;SDS011;45224;50.904;6.038;2023-02-07T07:44:13;20.55;;;8.63;;
59418;SDS011;45224;50.904;6.038;2023-02-07T07:45:43;22.17;;;8.00;;
59418;SDS011;45224;50.904;6.038;2023-02-07T07:47:14;20.77;;;8.68;;
59418;SDS011;45224;50.904;6.038;2023-02-07T07:48:45;18.17;;;8.37;;
59418;SDS011;45224;50.904;6.038;2023-02-07T07:50:15;18.37;;;9.10;;
59418;SDS011;45224;50.904;6.038;2023-02-07T07:51:46;20.30;;;8.70;;
59418;SDS011;45224;50.904;6.038;2023-02-07T07:53:16;18.77;;;8.77;;
59418;SDS011;45224;50.904;6.038;2023-02-07T07:54:47;22.48;;;8.80;;
59418;SDS011;45224;50.904;6.038;2023-02-07T07:56:18;21.50;;;8.50;;
59418;SDS011;45224;50.904;6.038;2023-02-07T07:57:48;19.60;;;8.67;;
59418;SDS011;45224;50.904;6.038;2023-02-07T07:59:18;23.07;;;9.17;;
59418;SDS011;45224;50.904;6.038;2023-02-07T08:00:49;21.63;;;8.80;;
59418;SDS011;45224;50.904;6.038;2023-02-07T08:02:20;18.90;;;8.10;;
59418;SDS011;45224;50.904;6.038;2023-02-07T08:03:50;20.77;;;8.20;;
59418;SDS011;45224;50.904;6.038;2023-02-07T08:05:21;22.40;;;8.50;;
59418;SDS011;45224;50.904;6.038;2023-02-07T08:06:51;20.20;;;8.47;;
59418;SDS011;45224;50.904;6.038;2023-02-07T08:08:22;16.77;;;8.00;;
59418;SDS011;45224;50.904;6.038;2023-02-07T08:09:52;18.93;;;8.60;;
59418;SDS011;45224;50.904;6.038;2023-02-07T08:11:23;14.10;;;6.83;;
59418;SDS011;45224;50.904;6.038;2023-02-07T08:12:54;18.88;;;9.57;;
59418;SDS011;45224;50.904;6.038;2023-02-07T08:14:24;17.20;;;8.50;;
59418;SDS011;45224;50.904;6.038;2023-02-07T08:15:55;23.37;;;9.10;;
59418;SDS011;45224;50.904;6.038;2023-02-07T08:17:25;18.63;;;8.83;;
59418;SDS011;45224;50.904;6.038;2023-02-07T08:18:56;24.93;;;9.80;;
59418;SDS011;45224;50.904;6.038;2023-02-07T08:20:26;20.17;;;8.93;;
59418;SDS011;45224;50.904;6.038;2023-02-07T08:21:57;22.17;;;9.53;;
59418;SDS011;45224;50.904;6.038;2023-02-07T08:23:27;16.77;;;8.30;;
59418;SDS011;45224;50.904;6.038;2023-02-07T08:24:58;20.00;;;9.23;;
59418;SDS011;45224;50.904;6.038;2023-02-07T08:26:28;18.93;;;7.30;;
59418;SDS011;45224;50.904;6.038;2023-02-07T08:27:59;15.87;;;8.33;;
59418;SDS011;45224;50.904;6.038;2023-02-07T08:29:29;18.13;;;8.33;;
59418;SDS011;45224;50.904;6.038;2023-02-07T08:31:00;15.90;;;7.85;;
59418;SDS011;45224;50.904;6.038;2023-02-07T08:32:32;19.58;;;8.95;;
59418;SDS011;45224;50.904;6.038;2023-02-07T08:34:03;19.30;;;9.10;;
59418;SDS011;45224;50.904;6.038;2023-02-07T08:35:33;16.87;;;9.03;;
59418;SDS011;45224;50.904;6.038;2023-02-07T08:37:06;20.88;;;8.77;;
59418;SDS011;45224;50.904;6.038;2023-02-07T08:38:38;17.35;;;8.60;;
59418;SDS011;45224;50.904;6.038;2023-02-07T08:40:08;16.47;;;8.23;;
59418;SDS011;45224;50.904;6.038;2023-02-07T08:41:39;16.27;;;7.95;;
59418;SDS011;45224;50.904;6.038;2023-02-07T08:43:10;14.97;;;8.00;;
59418;SDS011;45224;50.904;6.038;2023-02-07T08:44:41;17.52;;;8.07;;
59418;SDS011;45224;50.904;6.038;2023-02-07T08:46:11;15.13;;;7.47;;
59418;SDS011;45224;50.904;6.038;2023-02-07T08:47:42;13.03;;;6.27;;
59418;SDS011;45224;50.904;6.038;2023-02-07T08:49:14;14.70;;;7.05;;
59418;SDS011;45224;50.904;6.038;2023-02-07T08:50:44;14.93;;;7.13;;
59418;SDS011;45224;50.904;6.038;2023-02-07T08:52:15;13.23;;;7.17;;
59418;SDS011;45224;50.904;6.038;2023-02-07T08:53:45;11.97;;;6.40;;
59418;SDS011;45224;50.904;6.038;2023-02-07T08:55:16;12.17;;;6.60;;
59418;SDS011;45224;50.904;6.038;2023-02-07T08:56:46;12.25;;;6.18;;
59418;SDS011;45224;50.904;6.038;2023-02-07T08:58:17;13.93;;;7.17;;
59418;SDS011;45224;50.904;6.038;2023-02-07T08:59:48;11.50;;;7.23;;
59418;SDS011;45224;50.904;6.038;2023-02-07T09:01:18;12.53;;;6.73;;
59418;SDS011;45224;50.904;6.038;2023-02-07T09:02:48;12.27;;;6.97;;
59418;SDS011;45224;50.904;6.038;2023-02-07T09:04:19;11.27;;;6.93;;
59418;SDS011;45224;50.904;6.038;2023-02-07T09:05:49;11.10;;;6.03;;
59418;SDS011;45224;50.904;6.038;2023-02-07T09:07:20;11.60;;;6.83;;
59418;SDS011;45224;50.904;6.038;2023-02-07T09:08:51;10.13;;;5.97;;
59418;SDS011;45224;50.904;6.038;2023-02-07T09:10:21;10.77;;;6.15;;
59418;SDS011;45224;50.904;6.038;2023-02-07T09:11:52;11.77;;;7.20;;
59418;SDS011;45224;50.904;6.038;2023-02-07T09:13:22;11.73;;;7.23;;
59418;SDS011;45224;50.904;6.038;2023-02-07T09:14:53;12.70;;;6.47;;
59418;SDS011;45224;50.904;6.038;2023-02-07T09:16:23;13.37;;;6.60;;
59418;SDS011;45224;50.904;6.038;2023-02-07T09:17:54;10.98;;;6.30;;
59418;SDS011;45224;50.904;6.038;2023-02-07T09:19:25;11.95;;;6.70;;
59418;SDS011;45224;50.904;6.038;2023-02-07T09:20:56;15.47;;;6.60;;
59418;SDS011;45224;50.904;6.038;2023-02-07T09:22:26;11.30;;;6.17;;
59418;SDS011;45224;50.904;6.038;2023-02-07T09:23:57;10.43;;;5.82;;
59418;SDS011;45224;50.904;6.038;2023-02-07T09:25:27;12.23;;;6.63;;
59418;SDS011;45224;50.904;6.038;2023-02-07T09:26:58;9.90;;;6.43;;
59418;SDS011;45224;50.904;6.038;2023-02-07T09:28:29;9.13;;;6.00;;
59418;SDS011;45224;50.904;6.038;2023-02-07T09:29:59;15.75;;;6.50;;
59418;SDS011;45224;50.904;6.038;2023-02-07T09:31:30;12.70;;;6.57;;
59418;SDS011;45224;50.904;6.038;2023-02-07T09:33:02;11.93;;;5.93;;
59418;SDS011;45224;50.904;6.038;2023-02-07T09:34:33;13.87;;;6.30;;
59418;SDS011;45224;50.904;6.038;2023-02-07T09:36:04;10.35;;;7.60;;
59418;SDS011;45224;50.904;6.038;2023-02-07T09:37:35;10.82;;;6.88;;
59418;SDS011;45224;50.904;6.038;2023-02-07T09:39:05;12.63;;;7.07;;
59418;SDS011;45224;50.904;6.038;2023-02-07T09:40:36;15.47;;;6.00;;
59418;SDS011;45224;50.904;6.038;2023-02-07T09:43:52;10.73;;;6.13;;
59418;SDS011;45224;50.904;6.038;2023-02-07T09:45:36;8.52;;;5.13;;
59418;SDS011;45224;50.904;6.038;2023-02-07T09:47:16;9.45;;;5.30;;
59418;SDS011;45224;50.904;6.038;2023-02-07T09:48:51;9.57;;;5.82;;